sensor_id;sensor_type;location;lat;lon;timestamp;temperature;humidity
21906;DHT22;11117;48.644;9.006;2022-12-18T00:01:15;-9.10;99.90
21906;DHT22;11117;48.644;9.006;2022-12-18T00:03:40;-9.10;99.90
21906;DHT22;11117;48.644;9.006;2022-12-18T00:06:06;-9.10;99.90
21906;DHT22;11117;48.644;9.006;2022-12-18T00:08:32;-9.10;99.90
21906;DHT22;11117;48.644;9.006;2022-12-18T00:11:05;-9.10;99.90
21906;DHT22;11117;48.644;9.006;2022-12-18T00:13:31;-9.10;99.90
21906;DHT22;11117;48.644;9.006;2022-12-18T00:16:05;-9.10;99.90
21906;DHT22;11117;48.644;9.006;2022-12-18T00:18:32;-9.10;99.90
21906;DHT22;11117;48.644;9.006;2022-12-18T00:21:06;-9.10;99.90
21906;DHT22;11117;48.644;9.006;2022-12-18T00:23:33;-9.10;99.90
21906;DHT22;11117;48.644;9.006;2022-12-18T00:26:05;-9.20;99.90
21906;DHT22;11117;48.644;9.006;2022-12-18T00:28:32;-9.10;99.90
21906;DHT22;11117;48.644;9.006;2022-12-18T00:31:18;-9.20;99.90
21906;DHT22;11117;48.644;9.006;2022-12-18T00:33:44;-9.30;99.90
21906;DHT22;11117;48.644;9.006;2022-12-18T00:36:13;-9.30;99.90
21906;DHT22;11117;48.644;9.006;2022-12-18T00:38:39;-9.40;99.90
21906;DHT22;11117;48.644;9.006;2022-12-18T00:41:06;-9.40;99.90
21906;DHT22;11117;48.644;9.006;2022-12-18T00:43:36;-9.40;99.90
21906;DHT22;11117;48.644;9.006;2022-12-18T00:46:02;-9.30;99.90
21906;DHT22;11117;48.644;9.006;2022-12-18T00:48:27;-9.40;99.90
21906;DHT22;11117;48.644;9.006;2022-12-18T00:50:53;-9.30;99.90
21906;DHT22;11117;48.644;9.006;2022-12-18T00:53:19;-9.30;99.90
21906;DHT22;11117;48.644;9.006;2022-12-18T00:55:46;-9.30;99.90
21906;DHT22;11117;48.644;9.006;2022-12-18T00:58:12;-9.40;99.90
21906;DHT22;11117;48.644;9.006;2022-12-18T01:00:38;-9.40;99.90
21906;DHT22;11117;48.644;9.006;2022-12-18T01:03:05;-9.30;99.90
21906;DHT22;11117;48.644;9.006;2022-12-18T01:05:31;-9.30;99.90
21906;DHT22;11117;48.644;9.006;2022-12-18T01:07:57;-9.20;99.90
21906;DHT22;11117;48.644;9.006;2022-12-18T01:10:23;-9.20;99.90
21906;DHT22;11117;48.644;9.006;2022-12-18T01:12:49;-9.20;99.90
21906;DHT22;11117;48.644;9.006;2022-12-18T01:15:16;-9.20;99.90
21906;DHT22;11117;48.644;9.006;2022-12-18T01:17:42;-9.20;99.90
21906;DHT22;11117;48.644;9.006;2022-12-18T01:20:10;-9.20;99.90
21906;DHT22;11117;48.644;9.006;2022-12-18T01:22:37;-9.10;99.90
21906;DHT22;11117;48.644;9.006;2022-12-18T01:25:04;-9.10;99.90
21906;DHT22;11117;48.644;9.006;2022-12-18T01:27:30;-9.00;99.90
21906;DHT22;11117;48.644;9.006;2022-12-18T01:29:55;-8.90;99.90
21906;DHT22;11117;48.644;9.006;2022-12-18T01:32:21;-8.80;99.90
21906;DHT22;11117;48.644;9.006;2022-12-18T01:34:46;-8.70;99.90
21906;DHT22;11117;48.644;9.006;2022-12-18T01:37:12;-8.60;99.90
21906;DHT22;11117;48.644;9.006;2022-12-18T01:39:37;-8.60;99.90
21906;DHT22;11117;48.644;9.006;2022-12-18T01:42:13;-8.60;99.90
21906;DHT22;11117;48.644;9.006;2022-12-18T01:47:44;-8.40;99.90
21906;DHT22;11117;48.644;9.006;2022-12-18T01:50:28;-8.30;99.90
21906;DHT22;11117;48.644;9.006;2022-12-18T01:53:00;-8.30;99.90
21906;DHT22;11117;48.644;9.006;2022-12-18T01:55:35;-8.20;99.90
21906;DHT22;11117;48.644;9.006;2022-12-18T01:58:02;-8.10;99.90
21906;DHT22;11117;48.644;9.006;2022-12-18T02:00:29;-8.00;99.90
21906;DHT22;11117;48.644;9.006;2022-12-18T02:02:55;-7.80;99.90
21906;DHT22;11117;48.644;9.006;2022-12-18T02:08:10;-7.80;99.90
21906;DHT22;11117;48.644;9.006;2022-12-18T02:11:06;-7.80;99.90
21906;DHT22;11117;48.644;9.006;2022-12-18T02:13:46;-8.60;99.90
21906;DHT22;11117;48.644;9.006;2022-12-18T02:18:57;-8.60;99.90
21906;DHT22;11117;48.644;9.006;2022-12-18T02:26:53;-8.90;99.90
21906;DHT22;11117;48.644;9.006;2022-12-18T02:29:21;-9.00;99.90
21906;DHT22;11117;48.644;9.006;2022-12-18T02:31:52;-9.00;99.90
21906;DHT22;11117;48.644;9.006;2022-12-18T02:34:20;-8.90;99.90
21906;DHT22;11117;48.644;9.006;2022-12-18T02:36:47;-9.00;99.90
21906;DHT22;11117;48.644;9.006;2022-12-18T02:39:14;-8.90;99.90
21906;DHT22;11117;48.644;9.006;2022-12-18T02:41:41;-8.90;99.90
21906;DHT22;11117;48.644;9.006;2022-12-18T02:44:10;-8.70;99.90
21906;DHT22;11117;48.644;9.006;2022-12-18T02:46:45;-8.70;99.90
21906;DHT22;11117;48.644;9.006;2022-12-18T02:52:05;-8.40;99.90
21906;DHT22;11117;48.644;9.006;2022-12-18T02:54:50;-8.30;99.90
21906;DHT22;11117;48.644;9.006;2022-12-18T02:58:18;-8.20;99.90
21906;DHT22;11117;48.644;9.006;2022-12-18T03:00:50;-8.10;99.90
21906;DHT22;11117;48.644;9.006;2022-12-18T03:03:28;-8.00;99.90
21906;DHT22;11117;48.644;9.006;2022-12-18T03:06:12;-7.90;99.90
21906;DHT22;11117;48.644;9.006;2022-12-18T03:08:43;-7.80;99.90
21906;DHT22;11117;48.644;9.006;2022-12-18T03:11:12;-7.80;99.90
21906;DHT22;11117;48.644;9.006;2022-12-18T03:13:46;-7.60;99.90
21906;DHT22;11117;48.644;9.006;2022-12-18T03:16:20;-7.60;99.90
21906;DHT22;11117;48.644;9.006;2022-12-18T03:18:54;-7.60;99.90
21906;DHT22;11117;48.644;9.006;2022-12-18T03:21:25;-7.50;99.90
21906;DHT22;11117;48.644;9.006;2022-12-18T03:23:52;-7.60;99.90
21906;DHT22;11117;48.644;9.006;2022-12-18T03:26:21;-7.70;99.90
21906;DHT22;11117;48.644;9.006;2022-12-18T03:28:55;-7.60;99.90
21906;DHT22;11117;48.644;9.006;2022-12-18T03:31:23;-7.60;99.90
21906;DHT22;11117;48.644;9.006;2022-12-18T03:33:58;-7.50;99.90
21906;DHT22;11117;48.644;9.006;2022-12-18T03:36:25;-7.40;99.90
21906;DHT22;11117;48.644;9.006;2022-12-18T03:38:51;-7.50;99.90
21906;DHT22;11117;48.644;9.006;2022-12-18T03:41:34;-7.50;99.90
21906;DHT22;11117;48.644;9.006;2022-12-18T03:47:55;-7.40;99.90
21906;DHT22;11117;48.644;9.006;2022-12-18T03:55:14;-7.50;99.90
21906;DHT22;11117;48.644;9.006;2022-12-18T03:57:41;-7.40;99.90
21906;DHT22;11117;48.644;9.006;2022-12-18T04:00:11;-7.40;99.90
21906;DHT22;11117;48.644;9.006;2022-12-18T04:02:50;-7.50;99.90
21906;DHT22;11117;48.644;9.006;2022-12-18T04:05:17;-7.50;99.90
21906;DHT22;11117;48.644;9.006;2022-12-18T04:07:45;-7.40;99.90
21906;DHT22;11117;48.644;9.006;2022-12-18T04:10:12;-7.50;99.90
21906;DHT22;11117;48.644;9.006;2022-12-18T04:12:42;-7.40;99.90
21906;DHT22;11117;48.644;9.006;2022-12-18T04:15:09;-7.40;99.90
21906;DHT22;11117;48.644;9.006;2022-12-18T04:17:35;-7.40;99.90
21906;DHT22;11117;48.644;9.006;2022-12-18T04:20:02;-7.40;99.90
21906;DHT22;11117;48.644;9.006;2022-12-18T04:22:28;-7.40;99.90
21906;DHT22;11117;48.644;9.006;2022-12-18T04:24:54;-7.40;99.90
21906;DHT22;11117;48.644;9.006;2022-12-18T04:27:20;-7.40;99.90
21906;DHT22;11117;48.644;9.006;2022-12-18T04:29:45;-7.40;99.90
21906;DHT22;11117;48.644;9.006;2022-12-18T04:32:11;-7.40;99.90
21906;DHT22;11117;48.644;9.006;2022-12-18T04:34:36;-7.40;99.90
21906;DHT22;11117;48.644;9.006;2022-12-18T04:37:02;-7.40;99.90
21906;DHT22;11117;48.644;9.006;2022-12-18T04:39:29;-7.30;99.90
21906;DHT22;11117;48.644;9.006;2022-12-18T04:41:54;-7.30;99.90
21906;DHT22;11117;48.644;9.006;2022-12-18T04:44:20;-7.30;99.90
21906;DHT22;11117;48.644;9.006;2022-12-18T04:46:46;-7.30;99.90
21906;DHT22;11117;48.644;9.006;2022-12-18T04:49:11;-7.30;99.90
21906;DHT22;11117;48.644;9.006;2022-12-18T04:51:37;-7.30;99.90
21906;DHT22;11117;48.644;9.006;2022-12-18T04:54:03;-7.30;99.90
21906;DHT22;11117;48.644;9.006;2022-12-18T04:56:30;-7.30;99.90
21906;DHT22;11117;48.644;9.006;2022-12-18T04:58:56;-7.30;99.90
21906;DHT22;11117;48.644;9.006;2022-12-18T05:01:21;-7.30;99.90
21906;DHT22;11117;48.644;9.006;2022-12-18T05:03:47;-7.30;99.90
21906;DHT22;11117;48.644;9.006;2022-12-18T05:06:13;-7.30;99.90
21906;DHT22;11117;48.644;9.006;2022-12-18T05:08:38;-7.30;99.90
21906;DHT22;11117;48.644;9.006;2022-12-18T05:11:07;-7.30;99.90
21906;DHT22;11117;48.644;9.006;2022-12-18T05:13:33;-7.30;99.90
21906;DHT22;11117;48.644;9.006;2022-12-18T05:16:00;-7.40;99.90
21906;DHT22;11117;48.644;9.006;2022-12-18T05:18:26;-7.40;99.90
21906;DHT22;11117;48.644;9.006;2022-12-18T05:20:53;-7.40;99.90
21906;DHT22;11117;48.644;9.006;2022-12-18T05:23:20;-7.50;99.90
21906;DHT22;11117;48.644;9.006;2022-12-18T05:25:55;-7.50;99.90
21906;DHT22;11117;48.644;9.006;2022-12-18T05:28:23;-7.60;99.90
21906;DHT22;11117;48.644;9.006;2022-12-18T05:30:57;-7.60;99.90
21906;DHT22;11117;48.644;9.006;2022-12-18T05:33:25;-7.70;99.90
21906;DHT22;11117;48.644;9.006;2022-12-18T05:35:51;-7.70;99.90
21906;DHT22;11117;48.644;9.006;2022-12-18T05:38:18;-7.60;99.90
21906;DHT22;11117;48.644;9.006;2022-12-18T05:40:44;-7.70;99.90
21906;DHT22;11117;48.644;9.006;2022-12-18T05:43:10;-7.80;99.90
21906;DHT22;11117;48.644;9.006;2022-12-18T05:45:40;-7.70;99.90
21906;DHT22;11117;48.644;9.006;2022-12-18T05:48:06;-7.80;99.90
21906;DHT22;11117;48.644;9.006;2022-12-18T05:50:39;-7.80;99.90
21906;DHT22;11117;48.644;9.006;2022-12-18T05:53:05;-7.80;99.90
21906;DHT22;11117;48.644;9.006;2022-12-18T05:55:38;-7.80;99.90
21906;DHT22;11117;48.644;9.006;2022-12-18T05:58:06;-7.90;99.90
21906;DHT22;11117;48.644;9.006;2022-12-18T06:00:34;-7.90;99.90
21906;DHT22;11117;48.644;9.006;2022-12-18T06:03:00;-7.90;99.90
21906;DHT22;11117;48.644;9.006;2022-12-18T06:05:25;-7.90;99.90
21906;DHT22;11117;48.644;9.006;2022-12-18T06:07:51;-7.90;99.90
21906;DHT22;11117;48.644;9.006;2022-12-18T06:10:17;-7.90;99.90
21906;DHT22;11117;48.644;9.006;2022-12-18T06:12:42;-8.10;99.90
21906;DHT22;11117;48.644;9.006;2022-12-18T06:15:08;-8.10;99.90
21906;DHT22;11117;48.644;9.006;2022-12-18T06:17:35;-8.20;99.90
21906;DHT22;11117;48.644;9.006;2022-12-18T06:20:01;-8.20;99.90
21906;DHT22;11117;48.644;9.006;2022-12-18T06:22:27;-8.20;99.90
21906;DHT22;11117;48.644;9.006;2022-12-18T06:24:53;-8.20;99.90
21906;DHT22;11117;48.644;9.006;2022-12-18T06:27:19;-8.20;99.90
21906;DHT22;11117;48.644;9.006;2022-12-18T06:29:44;-8.10;99.90
21906;DHT22;11117;48.644;9.006;2022-12-18T06:32:10;-8.10;99.90
21906;DHT22;11117;48.644;9.006;2022-12-18T06:34:37;-8.10;99.90
21906;DHT22;11117;48.644;9.006;2022-12-18T06:37:03;-8.00;99.90
21906;DHT22;11117;48.644;9.006;2022-12-18T06:39:29;-8.00;99.90
21906;DHT22;11117;48.644;9.006;2022-12-18T06:41:55;-8.00;99.90
21906;DHT22;11117;48.644;9.006;2022-12-18T06:44:22;-8.00;99.90
21906;DHT22;11117;48.644;9.006;2022-12-18T06:46:47;-8.00;99.90
21906;DHT22;11117;48.644;9.006;2022-12-18T06:49:13;-8.00;99.90
21906;DHT22;11117;48.644;9.006;2022-12-18T06:51:38;-8.00;99.90
21906;DHT22;11117;48.644;9.006;2022-12-18T06:54:04;-8.00;99.90
21906;DHT22;11117;48.644;9.006;2022-12-18T06:56:30;-8.00;99.90
21906;DHT22;11117;48.644;9.006;2022-12-18T06:58:56;-8.00;99.90
21906;DHT22;11117;48.644;9.006;2022-12-18T07:01:21;-8.00;99.90
21906;DHT22;11117;48.644;9.006;2022-12-18T07:03:52;-8.00;99.90
21906;DHT22;11117;48.644;9.006;2022-12-18T07:06:20;-8.00;99.90
21906;DHT22;11117;48.644;9.006;2022-12-18T07:08:47;-8.00;99.90
21906;DHT22;11117;48.644;9.006;2022-12-18T07:11:13;-8.00;99.90
21906;DHT22;11117;48.644;9.006;2022-12-18T07:13:39;-8.00;99.90
21906;DHT22;11117;48.644;9.006;2022-12-18T07:16:10;-7.90;99.90
21906;DHT22;11117;48.644;9.006;2022-12-18T07:18:39;-7.90;99.90
21906;DHT22;11117;48.644;9.006;2022-12-18T07:21:06;-7.90;99.90
21906;DHT22;11117;48.644;9.006;2022-12-18T07:23:33;-7.80;99.90
21906;DHT22;11117;48.644;9.006;2022-12-18T07:26:19;-7.70;99.90
21906;DHT22;11117;48.644;9.006;2022-12-18T07:28:48;-7.70;99.90
21906;DHT22;11117;48.644;9.006;2022-12-18T07:31:17;-7.70;99.90
21906;DHT22;11117;48.644;9.006;2022-12-18T07:33:44;-7.60;99.90
21906;DHT22;11117;48.644;9.006;2022-12-18T07:36:10;-7.50;99.90
21906;DHT22;11117;48.644;9.006;2022-12-18T07:38:36;-7.50;99.90
21906;DHT22;11117;48.644;9.006;2022-12-18T07:41:10;-7.30;99.90
21906;DHT22;11117;48.644;9.006;2022-12-18T07:43:36;-7.30;99.90
21906;DHT22;11117;48.644;9.006;2022-12-18T07:46:02;-7.20;99.90
21906;DHT22;11117;48.644;9.006;2022-12-18T07:48:28;-7.10;99.90
21906;DHT22;11117;48.644;9.006;2022-12-18T07:50:57;-7.00;99.90
21906;DHT22;11117;48.644;9.006;2022-12-18T07:53:23;-6.90;99.90
21906;DHT22;11117;48.644;9.006;2022-12-18T07:55:48;-6.90;99.90
21906;DHT22;11117;48.644;9.006;2022-12-18T07:58:14;-6.80;99.90
21906;DHT22;11117;48.644;9.006;2022-12-18T08:00:39;-6.70;99.90
21906;DHT22;11117;48.644;9.006;2022-12-18T08:03:05;-6.60;99.90
21906;DHT22;11117;48.644;9.006;2022-12-18T08:05:30;-6.50;99.90
21906;DHT22;11117;48.644;9.006;2022-12-18T08:07:56;-6.50;99.90
21906;DHT22;11117;48.644;9.006;2022-12-18T08:10:23;-6.40;99.90
21906;DHT22;11117;48.644;9.006;2022-12-18T08:12:50;-6.30;99.90
21906;DHT22;11117;48.644;9.006;2022-12-18T08:15:16;-6.20;99.90
21906;DHT22;11117;48.644;9.006;2022-12-18T08:17:41;-6.20;99.90
21906;DHT22;11117;48.644;9.006;2022-12-18T08:20:07;-6.10;99.90
21906;DHT22;11117;48.644;9.006;2022-12-18T08:22:37;-5.90;99.90
21906;DHT22;11117;48.644;9.006;2022-12-18T08:25:03;-5.70;99.90
21906;DHT22;11117;48.644;9.006;2022-12-18T08:27:29;-5.60;99.90
21906;DHT22;11117;48.644;9.006;2022-12-18T08:29:54;-5.50;99.90
21906;DHT22;11117;48.644;9.006;2022-12-18T08:32:20;-5.50;99.90
21906;DHT22;11117;48.644;9.006;2022-12-18T08:34:45;-5.40;99.90
21906;DHT22;11117;48.644;9.006;2022-12-18T08:37:11;-5.40;99.90
21906;DHT22;11117;48.644;9.006;2022-12-18T08:39:36;-5.20;99.90
21906;DHT22;11117;48.644;9.006;2022-12-18T08:42:02;-5.10;99.90
21906;DHT22;11117;48.644;9.006;2022-12-18T08:44:28;-5.00;99.90
21906;DHT22;11117;48.644;9.006;2022-12-18T08:46:53;-5.00;99.90
21906;DHT22;11117;48.644;9.006;2022-12-18T08:49:19;-4.80;99.90
21906;DHT22;11117;48.644;9.006;2022-12-18T08:51:44;-4.70;99.90
21906;DHT22;11117;48.644;9.006;2022-12-18T08:54:13;-4.60;99.90
21906;DHT22;11117;48.644;9.006;2022-12-18T08:56:38;-4.50;99.90
21906;DHT22;11117;48.644;9.006;2022-12-18T08:59:04;-4.40;99.90
21906;DHT22;11117;48.644;9.006;2022-12-18T09:01:30;-4.20;99.90
21906;DHT22;11117;48.644;9.006;2022-12-18T09:03:55;-4.10;99.90
21906;DHT22;11117;48.644;9.006;2022-12-18T09:06:22;-3.90;99.90
21906;DHT22;11117;48.644;9.006;2022-12-18T09:08:48;-3.80;99.90
21906;DHT22;11117;48.644;9.006;2022-12-18T09:11:23;-3.70;99.90
21906;DHT22;11117;48.644;9.006;2022-12-18T09:13:49;-3.50;99.90
21906;DHT22;11117;48.644;9.006;2022-12-18T09:16:15;-3.40;99.90
21906;DHT22;11117;48.644;9.006;2022-12-18T09:18:40;-3.30;99.90
21906;DHT22;11117;48.644;9.006;2022-12-18T09:21:15;-3.30;99.90
21906;DHT22;11117;48.644;9.006;2022-12-18T09:23:41;-3.30;99.90
21906;DHT22;11117;48.644;9.006;2022-12-18T09:26:07;-3.20;99.90
21906;DHT22;11117;48.644;9.006;2022-12-18T09:28:33;-3.00;99.90
21906;DHT22;11117;48.644;9.006;2022-12-18T09:30:58;-2.90;99.90
21906;DHT22;11117;48.644;9.006;2022-12-18T09:33:24;-2.90;99.90
21906;DHT22;11117;48.644;9.006;2022-12-18T09:35:55;-2.70;99.90
21906;DHT22;11117;48.644;9.006;2022-12-18T09:38:21;-2.60;99.90
21906;DHT22;11117;48.644;9.006;2022-12-18T09:44:01;-2.30;99.90
21906;DHT22;11117;48.644;9.006;2022-12-18T09:46:40;-2.30;99.90
21906;DHT22;11117;48.644;9.006;2022-12-18T09:49:16;-2.10;99.90
21906;DHT22;11117;48.644;9.006;2022-12-18T09:51:47;-2.00;99.90
21906;DHT22;11117;48.644;9.006;2022-12-18T09:54:23;-2.00;99.90
21906;DHT22;11117;48.644;9.006;2022-12-18T09:56:49;-1.90;99.90
21906;DHT22;11117;48.644;9.006;2022-12-18T09:59:25;-1.80;99.90
21906;DHT22;11117;48.644;9.006;2022-12-18T10:01:52;-1.70;99.90
21906;DHT22;11117;48.644;9.006;2022-12-18T10:04:18;-1.70;99.90
21906;DHT22;11117;48.644;9.006;2022-12-18T10:06:49;-1.50;99.90
21906;DHT22;11117;48.644;9.006;2022-12-18T10:12:16;-1.30;99.90
21906;DHT22;11117;48.644;9.006;2022-12-18T10:14:55;-1.20;99.90
21906;DHT22;11117;48.644;9.006;2022-12-18T10:20:11;-1.10;99.90
21906;DHT22;11117;48.644;9.006;2022-12-18T10:25:17;-1.10;99.90
21906;DHT22;11117;48.644;9.006;2022-12-18T10:27:44;-1.10;99.90
21906;DHT22;11117;48.644;9.006;2022-12-18T10:30:16;-0.90;99.90
21906;DHT22;11117;48.644;9.006;2022-12-18T10:32:42;-0.80;99.90
21906;DHT22;11117;48.644;9.006;2022-12-18T10:35:22;-0.70;99.90
21906;DHT22;11117;48.644;9.006;2022-12-18T10:38:03;-0.70;99.90
21906;DHT22;11117;48.644;9.006;2022-12-18T10:40:30;-0.60;99.90
21906;DHT22;11117;48.644;9.006;2022-12-18T10:45:29;-0.60;99.90
21906;DHT22;11117;48.644;9.006;2022-12-18T10:47:55;-0.60;99.90
21906;DHT22;11117;48.644;9.006;2022-12-18T10:50:33;-0.50;99.90
21906;DHT22;11117;48.644;9.006;2022-12-18T10:53:01;-0.40;99.90
21906;DHT22;11117;48.644;9.006;2022-12-18T10:55:35;-0.20;99.90
21906;DHT22;11117;48.644;9.006;2022-12-18T11:03:44;-0.20;99.90
21906;DHT22;11117;48.644;9.006;2022-12-18T11:06:22;-0.10;99.90
21906;DHT22;11117;48.644;9.006;2022-12-18T11:09:20;-0.20;99.90
21906;DHT22;11117;48.644;9.006;2022-12-18T11:12:36;-0.50;99.90
21906;DHT22;11117;48.644;9.006;2022-12-18T11:14:46;-0.30;99.90
21906;DHT22;11117;48.644;9.006;2022-12-18T11:17:30;-0.10;99.90
21906;DHT22;11117;48.644;9.006;2022-12-18T11:19:58;0.00;99.90
21906;DHT22;11117;48.644;9.006;2022-12-18T11:27:19;0.50;99.90
21906;DHT22;11117;48.644;9.006;2022-12-18T11:29:44;0.60;99.90
21906;DHT22;11117;48.644;9.006;2022-12-18T11:35:01;0.70;99.90
21906;DHT22;11117;48.644;9.006;2022-12-18T11:37:27;0.70;99.90
21906;DHT22;11117;48.644;9.006;2022-12-18T11:40:09;0.70;99.90
21906;DHT22;11117;48.644;9.006;2022-12-18T11:42:46;0.70;99.90
21906;DHT22;11117;48.644;9.006;2022-12-18T11:47:59;0.80;99.90
21906;DHT22;11117;48.644;9.006;2022-12-18T11:53:13;0.70;99.90
21906;DHT22;11117;48.644;9.006;2022-12-18T12:04:10;0.90;99.90
21906;DHT22;11117;48.644;9.006;2022-12-18T12:15:21;0.80;99.90
21906;DHT22;11117;48.644;9.006;2022-12-18T12:17:54;0.80;99.90
21906;DHT22;11117;48.644;9.006;2022-12-18T12:20:50;0.90;99.90
21906;DHT22;11117;48.644;9.006;2022-12-18T12:26:22;0.90;99.90
21906;DHT22;11117;48.644;9.006;2022-12-18T12:31:30;0.70;99.90
21906;DHT22;11117;48.644;9.006;2022-12-18T12:37:02;0.60;99.90
21906;DHT22;11117;48.644;9.006;2022-12-18T12:39:35;0.70;99.90
21906;DHT22;11117;48.644;9.006;2022-12-18T12:42:04;0.60;99.90
21906;DHT22;11117;48.644;9.006;2022-12-18T12:44:35;0.70;99.90
21906;DHT22;11117;48.644;9.006;2022-12-18T12:47:29;0.60;99.90
21906;DHT22;11117;48.644;9.006;2022-12-18T12:49:58;0.70;99.90
21906;DHT22;11117;48.644;9.006;2022-12-18T12:52:37;0.70;99.90
21906;DHT22;11117;48.644;9.006;2022-12-18T12:55:20;0.70;99.90
21906;DHT22;11117;48.644;9.006;2022-12-18T12:58:11;0.70;99.90
21906;DHT22;11117;48.644;9.006;2022-12-18T13:01:00;0.70;99.90
21906;DHT22;11117;48.644;9.006;2022-12-18T13:06:48;0.80;99.90
21906;DHT22;11117;48.644;9.006;2022-12-18T13:09:15;0.80;99.90
21906;DHT22;11117;48.644;9.006;2022-12-18T13:11:45;0.80;99.90
21906;DHT22;11117;48.644;9.006;2022-12-18T13:14:22;0.80;99.90
21906;DHT22;11117;48.644;9.006;2022-12-18T13:16:48;0.90;99.90
21906;DHT22;11117;48.644;9.006;2022-12-18T13:19:22;0.80;99.90
21906;DHT22;11117;48.644;9.006;2022-12-18T13:21:54;0.80;99.90
21906;DHT22;11117;48.644;9.006;2022-12-18T13:24:27;0.70;99.90
21906;DHT22;11117;48.644;9.006;2022-12-18T13:26:53;0.70;99.90
21906;DHT22;11117;48.644;9.006;2022-12-18T13:29:48;0.60;99.90
21906;DHT22;11117;48.644;9.006;2022-12-18T13:32:22;0.60;99.90
21906;DHT22;11117;48.644;9.006;2022-12-18T13:35:10;0.60;99.90
21906;DHT22;11117;48.644;9.006;2022-12-18T13:37:51;0.60;99.90
21906;DHT22;11117;48.644;9.006;2022-12-18T13:46:06;0.70;99.90
21906;DHT22;11117;48.644;9.006;2022-12-18T13:48:54;0.60;99.90
21906;DHT22;11117;48.644;9.006;2022-12-18T13:51:21;0.60;99.90
21906;DHT22;11117;48.644;9.006;2022-12-18T13:54:30;0.50;99.90
21906;DHT22;11117;48.644;9.006;2022-12-18T13:56:58;0.40;99.90
21906;DHT22;11117;48.644;9.006;2022-12-18T13:59:25;0.40;99.90
21906;DHT22;11117;48.644;9.006;2022-12-18T14:01:56;0.50;99.90
21906;DHT22;11117;48.644;9.006;2022-12-18T14:04:30;0.40;99.90
21906;DHT22;11117;48.644;9.006;2022-12-18T14:07:04;0.30;99.90
21906;DHT22;11117;48.644;9.006;2022-12-18T14:09:35;0.30;99.90
21906;DHT22;11117;48.644;9.006;2022-12-18T14:12:02;0.30;99.90
21906;DHT22;11117;48.644;9.006;2022-12-18T14:14:28;0.10;99.90
21906;DHT22;11117;48.644;9.006;2022-12-18T14:16:54;0.20;99.90
21906;DHT22;11117;48.644;9.006;2022-12-18T14:19:20;0.10;99.90
21906;DHT22;11117;48.644;9.006;2022-12-18T14:21:47;0.00;99.90
21906;DHT22;11117;48.644;9.006;2022-12-18T14:24:14;0.00;99.90
21906;DHT22;11117;48.644;9.006;2022-12-18T14:26:40;0.00;99.90
21906;DHT22;11117;48.644;9.006;2022-12-18T14:29:28;0.00;99.90
21906;DHT22;11117;48.644;9.006;2022-12-18T14:32:10;0.00;99.90
21906;DHT22;11117;48.644;9.006;2022-12-18T14:34:36;0.00;99.90
21906;DHT22;11117;48.644;9.006;2022-12-18T14:37:02;-0.10;99.90
21906;DHT22;11117;48.644;9.006;2022-12-18T14:39:28;-0.20;99.90
21906;DHT22;11117;48.644;9.006;2022-12-18T14:41:53;-0.30;99.90
21906;DHT22;11117;48.644;9.006;2022-12-18T14:44:21;-0.30;99.90
21906;DHT22;11117;48.644;9.006;2022-12-18T14:46:49;-0.40;99.90
21906;DHT22;11117;48.644;9.006;2022-12-18T14:49:30;-0.50;99.90
21906;DHT22;11117;48.644;9.006;2022-12-18T14:51:57;-0.60;99.90
21906;DHT22;11117;48.644;9.006;2022-12-18T14:54:26;-0.60;99.90
21906;DHT22;11117;48.644;9.006;2022-12-18T14:59:27;-0.80;99.90
21906;DHT22;11117;48.644;9.006;2022-12-18T15:02:18;-0.90;99.90
21906;DHT22;11117;48.644;9.006;2022-12-18T15:04:46;-0.90;99.90
21906;DHT22;11117;48.644;9.006;2022-12-18T15:07:19;-1.00;99.90
21906;DHT22;11117;48.644;9.006;2022-12-18T15:20:27;-1.40;99.90
21906;DHT22;11117;48.644;9.006;2022-12-18T15:22:55;-1.50;99.90
21906;DHT22;11117;48.644;9.006;2022-12-18T15:25:36;-1.60;99.90
21906;DHT22;11117;48.644;9.006;2022-12-18T15:28:04;-1.60;99.90
21906;DHT22;11117;48.644;9.006;2022-12-18T15:30:39;-1.70;99.90
21906;DHT22;11117;48.644;9.006;2022-12-18T15:33:44;-1.70;99.90
21906;DHT22;11117;48.644;9.006;2022-12-18T15:36:12;-1.80;99.90
21906;DHT22;11117;48.644;9.006;2022-12-18T15:38:38;-1.90;99.90
21906;DHT22;11117;48.644;9.006;2022-12-18T15:41:03;-1.90;99.90
21906;DHT22;11117;48.644;9.006;2022-12-18T15:43:29;-2.00;99.90
21906;DHT22;11117;48.644;9.006;2022-12-18T15:45:55;-2.00;99.90
21906;DHT22;11117;48.644;9.006;2022-12-18T15:48:22;-2.10;99.90
21906;DHT22;11117;48.644;9.006;2022-12-18T15:50:50;-2.10;99.90
21906;DHT22;11117;48.644;9.006;2022-12-18T15:53:15;-2.20;99.90
21906;DHT22;11117;48.644;9.006;2022-12-18T15:55:41;-2.20;99.90
21906;DHT22;11117;48.644;9.006;2022-12-18T15:58:08;-2.30;99.90
21906;DHT22;11117;48.644;9.006;2022-12-18T16:00:37;-2.30;99.90
21906;DHT22;11117;48.644;9.006;2022-12-18T16:03:04;-2.30;99.90
21906;DHT22;11117;48.644;9.006;2022-12-18T16:05:31;-2.40;99.90
21906;DHT22;11117;48.644;9.006;2022-12-18T16:07:56;-2.40;99.90
21906;DHT22;11117;48.644;9.006;2022-12-18T16:10:22;-2.40;99.90
21906;DHT22;11117;48.644;9.006;2022-12-18T16:12:48;-2.50;99.90
21906;DHT22;11117;48.644;9.006;2022-12-18T16:15:14;-2.50;99.90
21906;DHT22;11117;48.644;9.006;2022-12-18T16:17:40;-2.60;99.90
21906;DHT22;11117;48.644;9.006;2022-12-18T16:20:15;-2.80;99.90
21906;DHT22;11117;48.644;9.006;2022-12-18T16:22:42;-2.90;99.90
21906;DHT22;11117;48.644;9.006;2022-12-18T16:25:18;-3.00;99.90
21906;DHT22;11117;48.644;9.006;2022-12-18T16:27:44;-2.90;99.90
21906;DHT22;11117;48.644;9.006;2022-12-18T16:30:14;-2.80;99.90
21906;DHT22;11117;48.644;9.006;2022-12-18T16:32:40;-2.80;99.90
21906;DHT22;11117;48.644;9.006;2022-12-18T16:35:10;-2.70;99.90
21906;DHT22;11117;48.644;9.006;2022-12-18T16:37:40;-2.60;99.90
21906;DHT22;11117;48.644;9.006;2022-12-18T16:40:07;-2.70;99.90
21906;DHT22;11117;48.644;9.006;2022-12-18T16:42:33;-2.60;99.90
21906;DHT22;11117;48.644;9.006;2022-12-18T16:44:58;-2.60;99.90
21906;DHT22;11117;48.644;9.006;2022-12-18T16:47:26;-2.50;99.90
21906;DHT22;11117;48.644;9.006;2022-12-18T16:49:52;-2.40;99.90
21906;DHT22;11117;48.644;9.006;2022-12-18T16:52:19;-2.40;99.90
21906;DHT22;11117;48.644;9.006;2022-12-18T16:54:47;-2.30;99.90
21906;DHT22;11117;48.644;9.006;2022-12-18T16:57:16;-2.30;99.90
21906;DHT22;11117;48.644;9.006;2022-12-18T16:59:42;-2.20;99.90
21906;DHT22;11117;48.644;9.006;2022-12-18T17:02:17;-2.20;99.90
21906;DHT22;11117;48.644;9.006;2022-12-18T17:04:44;-2.10;99.90
21906;DHT22;11117;48.644;9.006;2022-12-18T17:07:10;-2.10;99.90
21906;DHT22;11117;48.644;9.006;2022-12-18T17:09:36;-2.00;99.90
21906;DHT22;11117;48.644;9.006;2022-12-18T17:12:02;-1.90;99.90
21906;DHT22;11117;48.644;9.006;2022-12-18T17:14:28;-1.90;99.90
21906;DHT22;11117;48.644;9.006;2022-12-18T17:16:54;-1.90;99.90
21906;DHT22;11117;48.644;9.006;2022-12-18T17:19:20;-1.80;99.90
21906;DHT22;11117;48.644;9.006;2022-12-18T17:21:48;-1.80;99.90
21906;DHT22;11117;48.644;9.006;2022-12-18T17:24:14;-1.70;99.90
21906;DHT22;11117;48.644;9.006;2022-12-18T17:26:39;-1.70;99.90
21906;DHT22;11117;48.644;9.006;2022-12-18T17:29:05;-1.70;99.90
21906;DHT22;11117;48.644;9.006;2022-12-18T17:31:31;-1.60;99.90
21906;DHT22;11117;48.644;9.006;2022-12-18T17:33:57;-1.60;99.90